createdAt,value
2023-03-03T00:01:34.329Z,41.33
2023-03-03T00:04:19.841Z,40.85
2023-03-03T00:07:05.327Z,39.42
2023-03-03T00:09:51.367Z,36.22
2023-03-03T00:12:49.029Z,34.90
2023-03-03T00:15:36.239Z,33.65
2023-03-03T00:18:33.592Z,35.10
2023-03-03T00:21:29.403Z,34.55
2023-03-03T00:24:22.546Z,34.75
2023-03-03T00:27:38.275Z,35.65
2023-03-03T00:30:26.856Z,38.85
2023-03-03T00:33:45.971Z,38.70
2023-03-03T00:36:38.305Z,38.67
2023-03-03T00:39:29.601Z,36.47
2023-03-03T00:42:16.911Z,35.22
2023-03-03T00:45:02.103Z,37.30
2023-03-03T00:47:47.847Z,36.22
2023-03-03T00:50:35.683Z,35.22
2023-03-03T00:53:23.565Z,34.55
2023-03-03T00:56:09.019Z,34.88
2023-03-03T00:58:54.828Z,35.45
2023-03-03T01:01:41.139Z,36.63
2023-03-03T01:04:27.404Z,33.45
2023-03-03T01:07:12.731Z,33.75
2023-03-03T01:09:58.335Z,33.88
2023-03-03T01:12:43.757Z,30.75
2023-03-03T01:15:29.308Z,30.70
2023-03-03T01:18:15.237Z,28.92
2023-03-03T01:21:02.189Z,28.77
2023-03-03T01:23:47.449Z,32.47
2023-03-03T01:26:33.101Z,32.85
2023-03-03T01:29:18.477Z,32.63
2023-03-03T01:32:04.102Z,31.70
2023-03-03T01:34:49.479Z,31.38
2023-03-03T01:37:36.055Z,30.75
2023-03-03T01:40:28.286Z,31.70
2023-03-03T01:43:15.882Z,30.02
2023-03-03T01:46:01.177Z,29.27
2023-03-03T01:48:46.890Z,32.03
2023-03-03T01:51:38.728Z,29.77
2023-03-03T01:54:33.805Z,28.45
2023-03-03T01:57:30.879Z,29.58
2023-03-03T02:00:16.992Z,28.40
2023-03-03T02:03:02.784Z,24.80
2023-03-03T02:05:50.802Z,27.85
2023-03-03T02:08:47.023Z,26.42
2023-03-03T02:11:36.322Z,14.95
2023-03-03T02:14:21.427Z,12.77
2023-03-03T02:17:07.167Z,11.77
2023-03-03T02:20:03.489Z,12.02
2023-03-03T02:23:23.562Z,10.90
2023-03-03T02:26:16.157Z,11.43
2023-03-03T02:29:01.763Z,15.23
2023-03-03T02:31:48.413Z,16.88
2023-03-03T02:34:47.030Z,23.15
2023-03-03T02:37:32.788Z,25.60
2023-03-03T02:40:24.415Z,19.35
2023-03-03T02:43:11.946Z,17.35
2023-03-03T02:45:58.012Z,15.98
2023-03-03T02:48:43.589Z,15.18
2023-03-03T02:51:29.086Z,21.52
2023-03-03T02:54:16.864Z,30.13
2023-03-03T02:57:03.294Z,20.13
2023-03-03T02:59:48.902Z,17.27
2023-03-03T03:02:36.290Z,17.92
2023-03-03T03:05:22.566Z,18.80
2023-03-03T03:08:08.652Z,22.05
2023-03-03T03:10:54.360Z,20.30
2023-03-03T03:13:40.205Z,18.60
2023-03-03T03:16:26.247Z,18.92
2023-03-03T03:19:11.876Z,19.33
2023-03-03T03:21:58.689Z,18.88
2023-03-03T03:24:45.102Z,18.52
2023-03-03T03:27:30.929Z,19.52
2023-03-03T03:30:16.449Z,19.05
2023-03-03T03:33:01.946Z,19.67
2023-03-03T03:35:48.313Z,20.23
2023-03-03T03:38:39.184Z,29.95
2023-03-03T03:41:26.028Z,28.35
2023-03-03T03:44:11.940Z,25.67
2023-03-03T03:46:57.901Z,27.95
2023-03-03T03:49:43.893Z,19.65
2023-03-03T03:52:29.232Z,19.27
2023-03-03T03:55:15.149Z,17.15
2023-03-03T03:58:00.768Z,18.13
2023-03-03T04:00:47.154Z,18.58
2023-03-03T04:03:33.373Z,18.85
2023-03-03T04:06:19.904Z,19.70
2023-03-03T04:09:06.253Z,20.10
2023-03-03T04:11:53.913Z,19.63
2023-03-03T04:14:39.700Z,19.50
2023-03-03T04:17:25.644Z,20.92
2023-03-03T04:20:15.428Z,22.90
2023-03-03T04:23:03.152Z,27.48
2023-03-03T04:25:50.269Z,25.35
2023-03-03T04:28:36.601Z,27.33
2023-03-03T04:31:21.975Z,24.27
2023-03-03T04:34:08.040Z,23.83
2023-03-03T04:36:54.486Z,21.95
2023-03-03T04:39:39.953Z,19.65
2023-03-03T04:42:28.837Z,19.25
2023-03-03T04:45:14.946Z,19.27
2023-03-03T04:48:00.859Z,18.00
2023-03-03T04:50:46.854Z,21.30
2023-03-03T04:53:32.500Z,25.40
2023-03-03T04:56:17.977Z,25.35
2023-03-03T04:59:04.105Z,21.75
2023-03-03T05:01:51.124Z,21.02
2023-03-03T05:04:37.083Z,23.23
2023-03-03T05:07:22.760Z,21.65
2023-03-03T05:10:09.079Z,22.90
2023-03-03T05:12:54.781Z,18.88
2023-03-03T05:15:43.117Z,19.73
2023-03-03T05:18:28.690Z,17.55
2023-03-03T05:21:14.635Z,16.65
2023-03-03T05:24:00.667Z,15.98
2023-03-03T05:26:46.413Z,15.13
2023-03-03T05:29:33.538Z,16.20
2023-03-03T05:32:19.101Z,16.85
2023-03-03T05:35:05.583Z,16.48
2023-03-03T05:37:52.700Z,17.45
2023-03-03T05:40:39.488Z,19.27
2023-03-03T05:43:25.254Z,18.92
2023-03-03T05:46:11.487Z,25.75
2023-03-03T05:48:57.550Z,35.78
2023-03-03T05:51:42.911Z,35.60
2023-03-03T05:54:28.485Z,35.03
2023-03-03T05:57:13.924Z,34.65
2023-03-03T05:59:59.581Z,30.15
2023-03-03T06:02:45.024Z,30.10
2023-03-03T06:05:35.220Z,27.08
2023-03-03T06:08:22.445Z,24.92
2023-03-03T06:11:07.687Z,21.95
2023-03-03T06:13:53.459Z,20.30
2023-03-03T06:16:39.626Z,20.23
2023-03-03T06:19:25.594Z,19.08
2023-03-03T06:22:11.118Z,18.95
2023-03-03T06:24:56.418Z,23.20
2023-03-03T06:27:41.792Z,25.15
2023-03-03T06:30:28.425Z,21.60
2023-03-03T06:33:13.709Z,20.15
2023-03-03T06:35:59.590Z,19.73
2023-03-03T06:38:45.184Z,20.52
2023-03-03T06:41:30.829Z,22.20
2023-03-03T06:44:16.900Z,40.03
2023-03-03T06:47:02.851Z,37.30
2023-03-03T06:49:48.786Z,29.60
2023-03-03T06:52:34.236Z,34.30
2023-03-03T06:55:23.287Z,33.25
2023-03-03T06:58:14.443Z,34.67
2023-03-03T07:01:01.672Z,33.95
2023-03-03T07:03:47.085Z,31.92
2023-03-03T07:06:32.497Z,34.50
2023-03-03T07:09:24.476Z,35.03
2023-03-03T07:12:19.598Z,23.92
2023-03-03T07:15:24.176Z,24.33
2023-03-03T07:18:48.213Z,21.70
2023-03-03T07:21:38.144Z,21.95
2023-03-03T07:24:31.590Z,22.55
2023-03-03T07:27:24.223Z,22.90
2023-03-03T07:30:27.425Z,23.60
2023-03-03T07:33:21.253Z,24.35
2023-03-03T07:36:19.849Z,24.65
2023-03-03T07:39:17.612Z,36.72
2023-03-03T07:42:09.646Z,33.45
2023-03-03T07:45:00.171Z,28.45
2023-03-03T07:47:45.735Z,27.50
2023-03-03T07:50:31.157Z,27.25
2023-03-03T07:53:29.588Z,21.73
2023-03-03T07:56:30.988Z,25.67
2023-03-03T07:59:25.957Z,26.48
2023-03-03T08:02:55.574Z,26.00
2023-03-03T08:05:43.530Z,27.77
2023-03-03T08:08:33.655Z,29.63
2023-03-03T08:11:19.359Z,27.65
2023-03-03T08:14:13.124Z,29.95
2023-03-03T08:17:01.327Z,33.88
2023-03-03T08:19:48.031Z,29.27
2023-03-03T08:22:38.519Z,27.05
2023-03-03T08:25:24.205Z,28.08
2023-03-03T08:28:11.401Z,25.25
2023-03-03T08:31:12.568Z,27.42
2023-03-03T08:34:01.209Z,28.40
2023-03-03T08:36:47.501Z,31.70
2023-03-03T08:39:33.057Z,31.90
2023-03-03T08:42:18.507Z,32.78
2023-03-03T08:45:04.285Z,31.08
2023-03-03T08:47:49.454Z,33.35
2023-03-03T08:50:35.059Z,33.33
2023-03-03T08:53:21.990Z,32.97
2023-03-03T08:56:08.025Z,30.30
2023-03-03T08:59:02.092Z,29.73
2023-03-03T09:01:49.477Z,31.83
2023-03-03T09:04:35.024Z,30.40
2023-03-03T09:07:20.322Z,26.45
2023-03-03T09:10:06.959Z,24.83
2023-03-03T09:12:52.232Z,25.60
2023-03-03T09:15:38.920Z,22.85
2023-03-03T09:18:38.635Z,27.92
2023-03-03T09:21:32.895Z,20.00
2023-03-03T09:24:29.993Z,22.98
2023-03-03T09:27:37.204Z,20.55
2023-03-03T09:30:26.113Z,21.08
2023-03-03T09:33:41.216Z,23.00
2023-03-03T09:36:28.691Z,24.83
2023-03-03T09:39:21.610Z,26.85
2023-03-03T09:42:38.869Z,25.58
2023-03-03T09:46:06.473Z,22.77
2023-03-03T09:49:16.891Z,35.40
2023-03-03T09:52:35.990Z,36.15
2023-03-03T09:55:46.372Z,81.22
2023-03-03T09:59:15.981Z,56.40
2023-03-03T10:02:13.259Z,82.70
2023-03-03T10:05:14.357Z,170.20
2023-03-03T10:08:12.712Z,101.80
2023-03-03T10:11:24.204Z,53.90
2023-03-03T10:14:28.362Z,57.70
2023-03-03T10:17:39.247Z,27.88
2023-03-03T10:20:56.663Z,39.65
2023-03-03T10:24:00.647Z,34.08
2023-03-03T10:27:05.277Z,29.55
2023-03-03T10:30:12.296Z,25.08
2023-03-03T10:33:25.471Z,23.58
2023-03-03T10:36:11.142Z,18.77
2023-03-03T10:39:17.959Z,23.20
2023-03-03T10:42:28.357Z,19.17
2023-03-03T10:45:50.786Z,17.42
2023-03-03T10:49:33.670Z,19.17
2023-03-03T10:52:31.712Z,17.15
2023-03-03T10:55:40.620Z,14.98
2023-03-03T10:59:03.668Z,14.13
2023-03-03T11:02:02.125Z,13.07
2023-03-03T11:05:00.350Z,12.88
2023-03-03T11:07:52.538Z,15.20
2023-03-03T11:14:03.207Z,15.98
2023-03-03T11:17:20.610Z,20.05
2023-03-03T11:20:24.388Z,16.42
2023-03-03T11:23:40.175Z,16.25
2023-03-03T11:26:37.510Z,20.65
2023-03-03T11:29:53.081Z,16.95
2023-03-03T11:33:03.410Z,15.45
2023-03-03T11:36:00.292Z,15.20
2023-03-03T11:39:14.679Z,14.35
2023-03-03T11:42:23.791Z,15.32
2023-03-03T11:45:19.792Z,15.85
2023-03-03T11:48:20.542Z,16.30
2023-03-03T11:51:27.774Z,15.98
2023-03-03T11:54:52.249Z,16.55
2023-03-03T11:58:03.423Z,15.40
2023-03-03T12:01:00.735Z,14.15
2023-03-03T12:04:10.551Z,14.68
2023-03-03T12:07:23.337Z,13.77
2023-03-03T12:10:36.269Z,11.30
2023-03-03T12:13:40.282Z,11.50
2023-03-03T12:16:40.702Z,12.68
2023-03-03T12:19:46.990Z,12.60
2023-03-03T12:22:38.656Z,12.70
2023-03-03T12:25:26.884Z,12.57
2023-03-03T12:28:26.030Z,11.88
2023-03-03T12:31:32.881Z,11.55
2023-03-03T12:34:38.916Z,12.07
2023-03-03T12:37:45.593Z,12.43
2023-03-03T12:40:34.470Z,11.43
2023-03-03T12:43:40.738Z,12.25
2023-03-03T12:46:44.549Z,14.38
2023-03-03T12:49:48.094Z,29.25
2023-03-03T12:52:54.162Z,15.50
2023-03-03T12:56:04.192Z,14.03
2023-03-03T12:59:18.009Z,22.60
2023-03-03T13:02:38.049Z,21.65
2023-03-03T13:06:06.138Z,28.20
2023-03-03T13:09:02.081Z,23.15
2023-03-03T13:12:02.351Z,23.38
2023-03-03T13:15:17.231Z,19.83
2023-03-03T13:18:30.648Z,17.15
2023-03-03T13:21:32.408Z,18.02
2023-03-03T13:24:34.197Z,15.20
2023-03-03T13:27:25.688Z,14.03
2023-03-03T13:30:23.881Z,15.88
2023-03-03T13:33:18.485Z,13.88
2023-03-03T13:36:10.006Z,15.10
2023-03-03T13:39:00.380Z,12.57
2023-03-03T13:41:49.495Z,13.63
2023-03-03T13:44:42.557Z,12.95
2023-03-03T13:47:47.918Z,14.30
2023-03-03T13:50:47.917Z,15.15
2023-03-03T13:53:55.416Z,14.23
2023-03-03T13:57:02.555Z,12.52
2023-03-03T14:00:38.703Z,14.57
2023-03-03T14:03:41.357Z,13.70
2023-03-03T14:06:28.812Z,14.00
2023-03-03T14:09:51.731Z,12.52
2023-03-03T14:13:02.269Z,11.55
2023-03-03T14:16:03.871Z,11.57
2023-03-03T14:19:00.141Z,12.52
2023-03-03T14:22:00.955Z,12.30
2023-03-03T14:25:07.580Z,13.38
2023-03-03T14:28:02.928Z,14.45
2023-03-03T14:30:49.163Z,13.82
2023-03-03T14:33:34.907Z,13.10
2023-03-03T14:36:29.960Z,12.40
2023-03-03T14:39:39.675Z,13.48
2023-03-03T14:42:37.035Z,14.38
2023-03-03T14:45:40.493Z,13.20
2023-03-03T14:48:27.572Z,12.82
2023-03-03T14:51:25.608Z,12.98
2023-03-03T14:54:25.011Z,15.05
2023-03-03T14:57:18.014Z,14.93
2023-03-03T15:00:11.989Z,15.65
2023-03-03T15:03:18.155Z,13.95
2023-03-03T15:06:27.980Z,20.48
2023-03-03T15:09:48.879Z,18.50
2023-03-03T15:12:37.553Z,21.88
2023-03-03T15:15:26.905Z,19.58
2023-03-03T15:18:13.553Z,20.60
2023-03-03T15:21:11.928Z,19.67
2023-03-03T15:24:10.477Z,19.35
2023-03-03T15:27:03.491Z,19.17
2023-03-03T15:30:12.487Z,19.92
2023-03-03T15:33:14.235Z,19.42
2023-03-03T15:36:23.407Z,19.30
2023-03-03T15:39:47.886Z,19.00
2023-03-03T15:42:55.732Z,19.48
2023-03-03T15:45:52.734Z,18.88
2023-03-03T15:48:38.251Z,20.20
2023-03-03T15:52:03.699Z,20.05
2023-03-03T15:55:00.665Z,20.45
2023-03-03T15:58:15.731Z,18.50
2023-03-03T16:01:31.346Z,17.50
2023-03-03T16:04:21.073Z,17.17
2023-03-03T16:10:55.852Z,16.35
2023-03-03T16:13:50.440Z,17.13
2023-03-03T16:16:54.457Z,16.90
2023-03-03T16:19:56.615Z,18.10
2023-03-03T16:22:54.567Z,19.55
2023-03-03T16:25:58.398Z,20.73
2023-03-03T16:28:55.912Z,19.77
2023-03-03T16:31:56.165Z,21.75
2023-03-03T16:34:59.246Z,24.42
2023-03-03T16:38:01.160Z,31.95
2023-03-03T16:40:56.874Z,26.48
2023-03-03T16:44:12.879Z,31.33
2023-03-03T16:47:13.321Z,22.92
2023-03-03T16:50:23.406Z,22.38
2023-03-03T16:53:34.887Z,18.30
2023-03-03T16:56:25.302Z,17.45
2023-03-03T16:59:28.550Z,21.27
2023-03-03T17:02:27.712Z,18.00
2023-03-03T17:05:28.483Z,18.55
2023-03-03T17:08:46.390Z,17.75
2023-03-03T17:12:18.712Z,18.05
2023-03-03T17:15:33.426Z,18.70
2023-03-03T17:18:32.641Z,17.17
2023-03-03T17:21:34.808Z,17.75
2023-03-03T17:24:39.563Z,18.73
2023-03-03T17:27:39.974Z,20.20
2023-03-03T17:30:53.087Z,19.75
2023-03-03T17:34:17.161Z,17.20
2023-03-03T17:37:29.284Z,17.10
2023-03-03T17:40:58.826Z,18.67
2023-03-03T17:44:09.152Z,17.33
2023-03-03T17:47:04.419Z,20.23
2023-03-03T17:50:26.297Z,19.83
2023-03-03T17:53:32.942Z,20.70
2023-03-03T17:56:33.828Z,21.55
2023-03-03T17:59:31.856Z,22.27
2023-03-03T18:02:35.075Z,23.30
2023-03-03T18:06:12.918Z,22.48
2023-03-03T18:09:23.943Z,23.80
2023-03-03T18:12:22.341Z,23.05
2023-03-03T18:15:29.088Z,25.08
2023-03-03T18:18:31.481Z,22.48
2023-03-03T18:21:24.945Z,23.38
2023-03-03T18:24:30.628Z,23.50
2023-03-03T18:27:25.486Z,25.73
2023-03-03T18:30:16.801Z,25.50
2023-03-03T18:33:08.902Z,23.70
2023-03-03T18:36:14.070Z,24.15
2023-03-03T18:39:02.963Z,23.02
2023-03-03T18:42:08.386Z,23.67
2023-03-03T18:44:54.785Z,21.92
2023-03-03T18:48:02.106Z,23.27
2023-03-03T18:50:50.708Z,20.70
2023-03-03T18:53:36.607Z,20.85
2023-03-03T18:56:42.532Z,21.02
2023-03-03T18:59:31.822Z,20.48
2023-03-03T19:02:28.577Z,20.23
2023-03-03T19:05:15.963Z,21.60
2023-03-03T19:08:22.499Z,21.20
2023-03-03T19:11:48.051Z,21.77
2023-03-03T19:14:43.027Z,22.73
2023-03-03T19:17:38.940Z,21.23
2023-03-03T19:20:25.400Z,25.33
2023-03-03T19:23:17.422Z,21.95
2023-03-03T19:26:42.134Z,23.88
2023-03-03T19:29:41.566Z,24.58
2023-03-03T19:32:31.928Z,28.60
2023-03-03T19:35:33.024Z,28.50
2023-03-03T19:38:37.533Z,30.02
2023-03-03T19:41:56.059Z,26.05
2023-03-03T19:44:59.933Z,24.73
2023-03-03T19:47:51.742Z,36.70
2023-03-03T19:50:42.934Z,27.02
2023-03-03T19:53:33.896Z,27.58
2023-03-03T19:56:27.554Z,28.08
2023-03-03T19:59:18.145Z,29.13
2023-03-03T20:02:25.779Z,24.08
2023-03-03T20:05:21.505Z,22.73
2023-03-03T20:08:38.008Z,25.38
2023-03-03T20:11:35.917Z,26.50
2023-03-03T20:14:55.018Z,23.08
2023-03-03T20:17:58.643Z,24.55
2023-03-03T20:20:51.126Z,20.05
2023-03-03T20:23:48.738Z,23.00
2023-03-03T20:26:41.228Z,20.85
2023-03-03T20:29:44.419Z,24.30
2023-03-03T20:32:34.207Z,21.75
2023-03-03T20:35:24.909Z,24.13
2023-03-03T20:38:29.206Z,23.83
2023-03-03T20:41:29.668Z,28.05
2023-03-03T20:44:21.542Z,21.08
2023-03-03T20:47:36.104Z,25.33
2023-03-03T20:50:51.629Z,29.02
2023-03-03T20:53:41.958Z,23.50
2023-03-03T20:56:39.267Z,20.48
2023-03-03T20:59:51.290Z,24.95
2023-03-03T21:02:51.788Z,29.17
2023-03-03T21:05:55.918Z,33.88
2023-03-03T21:08:55.457Z,32.60
2023-03-03T21:11:43.892Z,28.35
2023-03-03T21:14:36.535Z,27.23
2023-03-03T21:17:29.220Z,20.42
2023-03-03T21:20:20.882Z,23.65
2023-03-03T21:23:10.390Z,19.67
2023-03-03T21:25:58.003Z,18.65
2023-03-03T21:29:00.523Z,18.60
2023-03-03T21:32:33.707Z,19.13
2023-03-03T21:35:23.796Z,17.15
2023-03-03T21:38:09.478Z,17.13
2023-03-03T21:41:02.799Z,18.38
2023-03-03T21:43:53.868Z,18.60
2023-03-03T21:46:39.369Z,17.73
2023-03-03T21:49:26.715Z,18.65
2023-03-03T21:52:13.478Z,16.80
2023-03-03T21:54:59.621Z,17.65
2023-03-03T21:57:45.452Z,17.98
2023-03-03T22:00:30.959Z,18.65
2023-03-03T22:03:19.961Z,18.92
2023-03-03T22:06:06.031Z,18.08
2023-03-03T22:08:51.777Z,20.10
2023-03-03T22:11:38.293Z,18.42
2023-03-03T22:14:23.833Z,19.67
2023-03-03T22:17:10.825Z,18.50
2023-03-03T22:19:56.704Z,16.65
2023-03-03T22:22:42.620Z,17.83
2023-03-03T22:25:28.229Z,19.65
2023-03-03T22:28:13.896Z,17.75
2023-03-03T22:30:59.208Z,17.92
2023-03-03T22:33:44.814Z,18.67
2023-03-03T22:36:30.656Z,19.73
2023-03-03T22:39:17.669Z,20.95
2023-03-03T22:42:03.756Z,18.05
2023-03-03T22:44:51.323Z,18.58
2023-03-03T22:47:46.650Z,18.05
2023-03-03T22:50:41.587Z,16.30
2023-03-03T22:53:34.200Z,15.88
2023-03-03T22:59:08.994Z,18.67
2023-03-03T23:01:57.230Z,17.17
2023-03-03T23:04:43.500Z,20.77
2023-03-03T23:07:29.719Z,18.40
2023-03-03T23:10:16.157Z,16.60
2023-03-03T23:13:03.758Z,16.58
2023-03-03T23:15:49.964Z,17.25
2023-03-03T23:18:36.477Z,17.23
2023-03-03T23:21:23.530Z,16.92
2023-03-03T23:24:11.902Z,15.93
2023-03-03T23:26:58.140Z,15.73
2023-03-03T23:29:46.609Z,18.20
2023-03-03T23:32:33.061Z,17.95
2023-03-03T23:35:19.789Z,15.73
2023-03-03T23:38:05.319Z,15.73
2023-03-03T23:40:51.348Z,14.38
2023-03-03T23:43:36.943Z,16.48
2023-03-03T23:46:23.267Z,14.18
2023-03-03T23:49:09.681Z,13.98
2023-03-03T23:51:55.065Z,13.32
2023-03-03T23:54:40.680Z,12.52
2023-03-03T23:57:26.137Z,10.90
